Time;durP1;ratioP1;P1;durP2;ratioP2;P2;SDS_P1;SDS_P2;PMS_P1;PMS_P2;Temp;Humidity;BMP_temperature;BMP_pressure;BME280_temperature;BME280_humidity;BME280_pressure;Samples;Min_cycle;Max_cycle;Signal;HPM_P1;HPM_P2
2022/05/11 00:02:00;;;;;;;;;;;18.50;49.30;;;;;;4990568;28;86900;-47
2022/05/11 00:04:26;;;;;;;;;;;18.50;49.40;;;;;;4987457;28;87492;-47
2022/05/11 00:06:52;;;;;;;;;;;18.50;49.40;;;;;;4987271;28;86913;-47
2022/05/11 00:09:18;;;;;;;;;;;18.50;49.30;;;;;;4987486;28;87902;-47
2022/05/11 00:11:44;;;;;;;;;;;18.50;49.50;;;;;;4987068;28;88742;-47
2022/05/11 00:14:11;;;;;;;;;;;18.40;49.40;;;;;;4987370;28;86818;-47
2022/05/11 00:16:37;;;;;;;;;;;18.40;49.40;;;;;;4987717;28;88119;-47
2022/05/11 00:19:03;;;;;;;;;;;18.40;49.50;;;;;;4987212;28;86847;-47
2022/05/11 00:21:30;;;;;;;;;;;18.40;49.50;;;;;;4987285;28;86831;-47
2022/05/11 00:23:55;;;;;;;;;;;18.40;49.50;;;;;;4989304;28;88179;-47
2022/05/11 00:26:21;;;;;;;;;;;18.40;49.50;;;;;;4987477;28;86934;-47
2022/05/11 00:28:47;;;;;;;;;;;18.40;49.50;;;;;;4986751;28;87105;-47
2022/05/11 00:31:12;;;;;;;;;;;18.30;49.50;;;;;;4987026;28;87314;-47
2022/05/11 00:33:38;;;;;;;;;;;18.30;49.60;;;;;;4987427;28;86836;-47
2022/05/11 00:36:08;;;;;;;;;;;18.30;49.60;;;;;;4987157;28;87267;-48
2022/05/11 00:38:35;;;;;;;;;;;18.30;49.50;;;;;;4986777;28;87419;-47
2022/05/11 00:41:01;;;;;;;;;;;18.30;49.50;;;;;;4987481;28;86080;-47
2022/05/11 00:43:34;;;;;;;;;;;18.20;49.50;;;;;;4986992;28;86802;-47
2022/05/11 00:46:24;;;;;;;;;;;18.20;49.50;;;;;;4989481;28;88675;-47
2022/05/11 00:51:39;;;;;;;;;;;18.20;49.60;;;;;;4986725;28;86861;-48
2022/05/11 00:54:06;;;;;;;;;;;18.10;49.50;;;;;;4986460;28;86997;-47
2022/05/11 00:56:33;;;;;;;;;;;18.10;49.50;;;;;;4987090;28;87153;-47
2022/05/11 00:59:04;;;;;;;;;;;18.10;49.60;;;;;;4985978;28;87575;-47
2022/05/11 01:01:30;;;;;;;;;;;18.10;49.60;;;;;;4986008;28;86855;-47
2022/05/11 01:04:09;;;;;;;;;;;18.10;49.60;;;;;;4987044;28;87588;-47
2022/05/11 01:06:35;;;;;;;;;;;18.10;49.60;;;;;;4987038;28;86796;-48
2022/05/11 01:09:01;;;;;;;;;;;18.10;49.60;;;;;;4989600;28;86885;-47
2022/05/11 01:11:27;;;;;;;;;;;18.00;49.60;;;;;;4986172;28;88480;-47
2022/05/11 01:13:54;;;;;;;;;;;18.00;49.60;;;;;;4985921;28;87873;-47
2022/05/11 01:16:20;;;;;;;;;;;18.00;49.60;;;;;;4986888;28;87619;-47
2022/05/11 01:18:46;;;;;;;;;;;18.00;49.60;;;;;;4986090;28;88447;-47
2022/05/11 01:21:12;;;;;;;;;;;17.90;49.60;;;;;;4986491;28;86982;-47
2022/05/11 01:23:52;;;;;;;;;;;17.90;49.60;;;;;;4986455;28;88075;-47
2022/05/11 01:26:18;;;;;;;;;;;17.90;49.70;;;;;;4986075;28;87615;-47
2022/05/11 01:28:45;;;;;;;;;;;17.90;49.70;;;;;;4988712;28;86910;-47
2022/05/11 01:31:11;;;;;;;;;;;17.80;49.60;;;;;;4986595;28;86894;-47
2022/05/11 01:33:39;;;;;;;;;;;17.80;49.60;;;;;;4986376;28;86927;-47
2022/05/11 01:36:25;;;;;;;;;;;17.80;49.60;;;;;;4986311;28;86875;-47
2022/05/11 01:38:51;;;;;;;;;;;17.80;49.60;;;;;;4985244;28;88940;-47
2022/05/11 01:41:23;;;;;;;;;;;17.80;49.60;;;;;;4986540;28;86826;-47
2022/05/11 01:43:51;;;;;;;;;;;17.80;49.60;;;;;;4986347;28;86948;-50
2022/05/11 01:46:17;;;;;;;;;;;17.80;49.70;;;;;;4968430;28;89119;-48
2022/05/11 01:48:43;;;;;;;;;;;17.70;49.60;;;;;;4986343;28;86764;-48
2022/05/11 01:51:10;;;;;;;;;;;17.70;49.60;;;;;;4988645;28;88384;-50
2022/05/11 01:53:36;;;;;;;;;;;17.70;49.70;;;;;;4986166;28;87116;-48
2022/05/11 01:56:01;;;;;;;;;;;17.70;49.70;;;;;;4986510;28;87994;-48
2022/05/11 01:58:27;;;;;;;;;;;17.70;49.70;;;;;;4985664;28;88422;-48
2022/05/11 02:00:53;;;;;;;;;;;17.60;49.70;;;;;;4986046;28;86954;-51
2022/05/11 02:03:20;;;;;;;;;;;17.60;49.70;;;;;;4985597;28;87789;-49
2022/05/11 02:08:31;;;;;;;;;;;17.60;49.90;;;;;;4986123;28;86894;-47
2022/05/11 02:10:57;;;;;;;;;;;17.50;49.70;;;;;;4986310;28;87879;-48
2022/05/11 02:13:23;;;;;;;;;;;17.50;49.70;;;;;;4991732;28;87550;-48
2022/05/11 02:15:50;;;;;;;;;;;17.50;49.70;;;;;;4989636;28;86894;-47
2022/05/11 02:18:16;;;;;;;;;;;17.50;49.80;;;;;;4988581;28;87753;-47
2022/05/11 02:20:42;;;;;;;;;;;17.50;49.90;;;;;;4989774;28;86151;-47
2022/05/11 02:23:07;;;;;;;;;;;17.50;49.80;;;;;;4989329;28;86817;-47
2022/05/11 02:25:33;;;;;;;;;;;17.40;49.80;;;;;;4988852;28;88398;-48
2022/05/11 02:27:58;;;;;;;;;;;17.40;49.80;;;;;;4987952;28;87855;-49
2022/05/11 02:30:26;;;;;;;;;;;17.40;49.80;;;;;;4989007;28;88256;-48
2022/05/11 02:32:53;;;;;;;;;;;17.40;49.90;;;;;;4988799;28;87682;-49
2022/05/11 02:35:20;;;;;;;;;;;17.40;49.80;;;;;;4991892;28;86909;-48
2022/05/11 02:37:50;;;;;;;;;;;17.40;49.80;;;;;;4988552;28;87664;-47
2022/05/11 02:40:18;;;;;;;;;;;17.30;49.80;;;;;;4988942;28;86882;-48
2022/05/11 02:42:44;;;;;;;;;;;17.30;49.80;;;;;;4988205;28;87052;-47
2022/05/11 02:45:11;;;;;;;;;;;17.30;49.90;;;;;;4988991;28;88095;-49
2022/05/11 02:47:37;;;;;;;;;;;17.30;49.80;;;;;;4989045;28;87102;-47
2022/05/11 02:50:05;;;;;;;;;;;17.30;49.90;;;;;;4989019;28;86924;-47
2022/05/11 02:52:32;;;;;;;;;;;17.20;49.80;;;;;;4987744;28;88750;-49
2022/05/11 02:54:58;;;;;;;;;;;17.20;49.80;;;;;;4988728;28;87044;-48
2022/05/11 02:57:24;;;;;;;;;;;17.20;49.90;;;;;;4991351;28;87246;-48
2022/05/11 02:59:49;;;;;;;;;;;17.20;49.90;;;;;;4988518;28;86810;-47
2022/05/11 03:02:20;;;;;;;;;;;17.20;49.80;;;;;;4988576;28;86938;-47
2022/05/11 03:04:47;;;;;;;;;;;17.20;50.00;;;;;;4988177;28;87834;-47
2022/05/11 03:07:13;;;;;;;;;;;17.10;49.80;;;;;;4988579;28;86887;-47
2022/05/11 03:09:38;;;;;;;;;;;17.10;49.90;;;;;;4988562;28;87913;-48
2022/05/11 03:12:04;;;;;;;;;;;17.10;50.20;;;;;;4987508;28;87840;-48
2022/05/11 03:14:30;;;;;;;;;;;17.10;49.90;;;;;;4987994;28;86869;-48
2022/05/11 03:16:55;;;;;;;;;;;17.00;49.80;;;;;;4987501;28;87770;-47
2022/05/11 03:19:21;;;;;;;;;;;17.10;49.90;;;;;;4990177;28;87577;-48
2022/05/11 03:21:47;;;;;;;;;;;17.00;49.90;;;;;;4987942;28;86883;-48
2022/05/11 03:24:13;;;;;;;;;;;17.00;49.90;;;;;;4986282;28;88154;-49
2022/05/11 03:26:38;;;;;;;;;;;17.00;49.90;;;;;;4987645;28;86988;-48
2022/05/11 03:29:05;;;;;;;;;;;17.00;50.00;;;;;;4987479;28;87032;-48
2022/05/11 03:31:34;;;;;;;;;;;17.00;50.10;;;;;;4987127;28;88518;-47
2022/05/11 03:36:43;;;;;;;;;;;16.90;50.00;;;;;;4987813;28;86849;-47
2022/05/11 03:39:10;;;;;;;;;;;16.90;50.10;;;;;;4990078;28;87438;-47
2022/05/11 03:41:36;;;;;;;;;;;16.90;50.10;;;;;;4986818;28;88004;-50
2022/05/11 03:44:02;;;;;;;;;;;16.90;50.00;;;;;;4987177;28;87460;-48
2022/05/11 03:46:27;;;;;;;;;;;16.90;50.00;;;;;;4987498;28;86900;-47
2022/05/11 03:48:53;;;;;;;;;;;16.80;50.10;;;;;;4987150;28;88130;-47
2022/05/11 03:51:18;;;;;;;;;;;16.80;50.20;;;;;;4987105;28;86975;-49
2022/05/11 03:53:44;;;;;;;;;;;16.80;50.10;;;;;;4987170;28;86901;-47
2022/05/11 03:56:09;;;;;;;;;;;16.80;50.20;;;;;;4987101;28;87917;-49
2022/05/11 03:58:35;;;;;;;;;;;16.80;50.10;;;;;;4987214;28;86988;-47
2022/05/11 04:01:01;;;;;;;;;;;16.80;50.20;;;;;;4990260;28;87235;-47
2022/05/11 04:03:26;;;;;;;;;;;16.70;50.10;;;;;;4986786;28;88540;-49
2022/05/11 04:05:52;;;;;;;;;;;16.80;50.10;;;;;;4986414;28;87734;-49
2022/05/11 04:08:18;;;;;;;;;;;16.80;50.20;;;;;;4987015;28;87983;-48
2022/05/11 04:10:43;;;;;;;;;;;16.70;50.10;;;;;;4986470;28;88831;-48
2022/05/11 04:13:09;;;;;;;;;;;16.70;50.20;;;;;;4987269;28;86807;-47
2022/05/11 04:15:34;;;;;;;;;;;16.70;50.10;;;;;;4986844;28;87030;-48
2022/05/11 04:18:00;;;;;;;;;;;16.60;50.20;;;;;;4986820;28;87375;-47
2022/05/11 04:20:25;;;;;;;;;;;16.70;50.10;;;;;;4986913;28;86993;-47
2022/05/11 04:22:51;;;;;;;;;;;16.70;50.10;;;;;;4989657;28;87983;-48
2022/05/11 04:25:17;;;;;;;;;;;16.60;50.10;;;;;;4987013;28;86918;-47
2022/05/11 04:27:44;;;;;;;;;;;16.60;50.10;;;;;;4986420;28;87806;-47
2022/05/11 04:30:10;;;;;;;;;;;16.60;50.30;;;;;;4968227;28;91571;-47
2022/05/11 04:32:35;;;;;;;;;;;16.60;50.20;;;;;;4986649;28;86964;-47
2022/05/11 04:35:01;;;;;;;;;;;16.60;50.30;;;;;;4986685;28;87113;-48
2022/05/11 04:37:27;;;;;;;;;;;16.60;50.30;;;;;;4986424;28;87703;-47
2022/05/11 04:39:53;;;;;;;;;;;16.60;50.40;;;;;;4985888;28;86833;-48
2022/05/11 04:42:18;;;;;;;;;;;16.50;50.40;;;;;;4986862;28;86856;-48
2022/05/11 04:44:44;;;;;;;;;;;16.50;50.40;;;;;;4988968;28;88711;-47
2022/05/11 04:47:11;;;;;;;;;;;16.50;50.40;;;;;;4986910;28;87910;-47
2022/05/11 04:49:37;;;;;;;;;;;16.50;50.40;;;;;;4985819;28;88421;-48
2022/05/11 04:52:07;;;;;;;;;;;16.50;50.50;;;;;;4986427;28;86884;-48
2022/05/11 04:54:39;;;;;;;;;;;16.50;50.40;;;;;;4985696;28;87998;-47
2022/05/11 04:57:05;;;;;;;;;;;16.50;50.40;;;;;;4986076;28;88495;-47
2022/05/11 04:59:32;;;;;;;;;;;16.50;50.50;;;;;;4986278;28;86824;-48
2022/05/11 05:01:59;;;;;;;;;;;16.50;50.50;;;;;;4986317;28;87924;-47
2022/05/11 05:04:28;;;;;;;;;;;16.50;50.50;;;;;;4985740;28;87759;-47
2022/05/11 05:06:54;;;;;;;;;;;16.50;50.50;;;;;;4989391;28;86948;-47
2022/05/11 05:09:19;;;;;;;;;;;16.50;50.40;;;;;;4985641;28;88534;-48
2022/05/11 05:11:45;;;;;;;;;;;16.50;50.50;;;;;;4986712;28;86115;-47
2022/05/11 05:14:11;;;;;;;;;;;16.50;50.50;;;;;;4985994;28;87623;-47
2022/05/11 05:16:36;;;;;;;;;;;16.50;50.50;;;;;;4985723;28;88453;-48
2022/05/11 05:19:02;;;;;;;;;;;16.50;50.50;;;;;;4985508;28;87829;-47
2022/05/11 05:21:28;;;;;;;;;;;16.50;50.50;;;;;;4986146;28;87929;-47
2022/05/11 05:23:53;;;;;;;;;;;16.50;50.50;;;;;;4985825;28;87054;-48
2022/05/11 05:26:19;;;;;;;;;;;16.50;50.40;;;;;;4985890;28;86956;-49
2022/05/11 05:31:29;;;;;;;;;;;16.50;50.50;;;;;;4986173;28;86872;-48
2022/05/11 05:33:59;;;;;;;;;;;16.50;50.60;;;;;;4985933;28;88109;-49
2022/05/11 05:36:28;;;;;;;;;;;16.50;50.70;;;;;;4985906;28;88234;-47
2022/05/11 05:38:54;;;;;;;;;;;16.50;50.80;;;;;;4985843;28;86866;-47
2022/05/11 05:41:20;;;;;;;;;;;16.50;50.80;;;;;;4986114;28;86858;-47
2022/05/11 05:43:46;;;;;;;;;;;16.40;50.90;;;;;;4984964;28;89282;-48
2022/05/11 05:46:11;;;;;;;;;;;16.50;51.00;;;;;;4986441;28;86855;-49
2022/05/11 05:48:37;;;;;;;;;;;16.50;51.00;;;;;;4991706;28;87072;-47
2022/05/11 05:51:07;;;;;;;;;;;16.50;50.90;;;;;;4989227;28;86847;-48
2022/05/11 05:53:33;;;;;;;;;;;16.40;51.00;;;;;;4989489;28;86860;-49
2022/05/11 05:55:59;;;;;;;;;;;16.50;51.00;;;;;;4988978;28;88603;-47
2022/05/11 05:58:24;;;;;;;;;;;16.50;51.10;;;;;;4989338;28;86864;-47
2022/05/11 06:00:50;;;;;;;;;;;16.50;51.10;;;;;;4989834;28;87838;-48
2022/05/11 06:03:19;;;;;;;;;;;16.50;51.10;;;;;;4988739;28;87601;-47
2022/05/11 06:05:45;;;;;;;;;;;16.50;51.10;;;;;;4989157;28;86869;-47
2022/05/11 06:08:15;;;;;;;;;;;16.50;51.10;;;;;;5355471;22;89563;-47
2022/05/11 06:10:40;;;;;;;;;;;16.50;51.10;;;;;;4972255;28;88449;-47
2022/05/11 06:13:06;;;;;;;;;;;16.50;51.20;;;;;;4969787;28;88036;-48
2022/05/11 06:15:32;;;;;;;;;;;16.50;51.10;;;;;;4969321;28;88426;-50
2022/05/11 06:17:58;;;;;;;;;;;16.50;51.30;;;;;;4969937;28;86958;-49
2022/05/11 06:20:23;;;;;;;;;;;16.50;51.20;;;;;;4969659;28;88325;-50
2022/05/11 06:22:50;;;;;;;;;;;16.50;51.20;;;;;;4969134;28;89114;-48
2022/05/11 06:25:18;;;;;;;;;;;16.50;51.20;;;;;;4970045;28;86142;-48
2022/05/11 06:27:44;;;;;;;;;;;16.50;51.20;;;;;;4969568;28;87208;-48
2022/05/11 06:30:10;;;;;;;;;;;16.50;51.20;;;;;;4969361;28;87484;-48
2022/05/11 06:32:36;;;;;;;;;;;16.60;51.20;;;;;;4971781;28;87793;-48
2022/05/11 06:35:01;;;;;;;;;;;16.60;51.20;;;;;;4969108;28;88542;-47
2022/05/11 06:37:27;;;;;;;;;;;16.60;51.20;;;;;;4969398;28;86968;-47
2022/05/11 06:39:53;;;;;;;;;;;16.60;51.30;;;;;;4969407;28;87969;-48
2022/05/11 06:42:20;;;;;;;;;;;16.60;51.40;;;;;;4969011;28;88555;-50
2022/05/11 06:44:45;;;;;;;;;;;16.60;51.70;;;;;;4969251;28;87022;-49
2022/05/11 06:47:11;;;;;;;;;;;16.60;51.50;;;;;;4969403;28;86893;-47
2022/05/11 06:49:37;;;;;;;;;;;16.50;51.40;;;;;;4969344;28;88384;-47
2022/05/11 06:52:02;;;;;;;;;;;16.60;51.50;;;;;;4969060;28;86820;-50
2022/05/11 06:59:57;;;;;;;;;;;16.60;51.50;;;;;;4969331;28;87451;-47
2022/05/11 07:02:23;;;;;;;;;;;16.60;51.50;;;;;;4968729;28;88737;-47
2022/05/11 07:04:50;;;;;;;;;;;16.50;51.50;;;;;;4968389;28;87195;-47
2022/05/11 07:07:16;;;;;;;;;;;16.50;51.50;;;;;;4968909;28;87085;-47
2022/05/11 07:09:42;;;;;;;;;;;16.50;51.50;;;;;;4968449;28;87430;-47
2022/05/11 07:12:17;;;;;;;;;;;16.60;51.50;;;;;;4968872;28;86856;-47
2022/05/11 07:14:43;;;;;;;;;;;16.60;51.50;;;;;;4969317;28;87117;-47
2022/05/11 07:17:10;;;;;;;;;;;16.50;51.70;;;;;;4971169;28;88977;-47
2022/05/11 07:19:40;;;;;;;;;;;16.50;51.70;;;;;;4968776;28;88338;-47
2022/05/11 07:22:06;;;;;;;;;;;16.60;51.60;;;;;;4967699;28;89524;-47
2022/05/11 07:24:31;;;;;;;;;;;16.60;51.60;;;;;;4968800;28;87069;-47
2022/05/11 07:26:57;;;;;;;;;;;16.60;51.60;;;;;;4968733;28;87973;-48
2022/05/11 07:29:23;;;;;;;;;;;16.60;51.60;;;;;;4968426;28;87436;-47
2022/05/11 07:31:49;;;;;;;;;;;16.60;51.70;;;;;;4968793;28;86899;-47
2022/05/11 07:34:15;;;;;;;;;;;16.60;51.80;;;;;;4968509;28;87933;-47
2022/05/11 07:36:40;;;;;;;;;;;16.60;51.70;;;;;;4968126;28;88713;-47
2022/05/11 07:39:06;;;;;;;;;;;16.60;51.80;;;;;;4971644;28;86002;-47
2022/05/11 07:41:34;;;;;;;;;;;16.60;51.70;;;;;;4967993;28;87720;-47
2022/05/11 07:43:59;;;;;;;;;;;16.60;51.60;;;;;;4968358;28;86889;-47
2022/05/11 07:46:26;;;;;;;;;;;16.70;51.90;;;;;;4967819;28;87969;-47
2022/05/11 07:48:52;;;;;;;;;;;16.60;51.90;;;;;;4967887;28;88886;-47
2022/05/11 07:51:18;;;;;;;;;;;16.60;51.80;;;;;;4968435;28;87166;-47
2022/05/11 07:53:44;;;;;;;;;;;16.70;51.90;;;;;;4968244;28;88453;-47
2022/05/11 08:01:38;;;;;;;;;;;16.70;51.90;;;;;;4964985;28;86838;-47
2022/05/11 08:04:04;;;;;;;;;;;16.60;51.90;;;;;;4968514;28;86159;-47
2022/05/11 08:06:30;;;;;;;;;;;16.70;51.90;;;;;;4968450;28;87137;-47
2022/05/11 08:08:56;;;;;;;;;;;16.70;51.90;;;;;;4966841;28;88511;-47
2022/05/11 08:11:21;;;;;;;;;;;16.70;51.80;;;;;;4967308;28;88069;-47
2022/05/11 08:13:47;;;;;;;;;;;16.70;51.90;;;;;;4968101;28;86888;-47
2022/05/11 08:16:12;;;;;;;;;;;16.70;52.10;;;;;;4967606;28;87652;-47
2022/05/11 08:18:38;;;;;;;;;;;16.70;52.10;;;;;;4968090;28;86805;-47
2022/05/11 08:21:04;;;;;;;;;;;16.70;52.00;;;;;;4970511;28;86937;-47
2022/05/11 08:23:31;;;;;;;;;;;16.70;52.10;;;;;;4968094;28;87131;-47
2022/05/11 08:25:57;;;;;;;;;;;16.70;52.40;;;;;;4967835;28;87925;-47
2022/05/11 08:28:24;;;;;;;;;;;16.70;52.10;;;;;;4967855;28;86988;-47
2022/05/11 08:33:37;;;;;;;;;;;16.80;52.30;;;;;;4967824;28;86807;-47
2022/05/11 08:36:04;;;;;;;;;;;16.80;52.20;;;;;;4966534;28;88653;-47
2022/05/11 08:38:32;;;;;;;;;;;16.90;52.10;;;;;;4967419;28;86873;-47
2022/05/11 08:40:57;;;;;;;;;;;16.90;52.10;;;;;;4967581;28;86909;-47
2022/05/11 08:43:28;;;;;;;;;;;16.80;52.00;;;;;;4969804;28;88519;-47
2022/05/11 08:46:01;;;;;;;;;;;16.90;52.10;;;;;;4967477;28;87286;-47
2022/05/11 08:48:36;;;;;;;;;;;16.90;52.00;;;;;;4967106;28;87910;-47
2022/05/11 08:51:03;;;;;;;;;;;16.90;52.10;;;;;;4967138;28;86975;-47
2022/05/11 08:53:35;;;;;;;;;;;16.90;52.10;;;;;;4967878;28;87170;-47
2022/05/11 08:56:05;;;;;;;;;;;17.00;51.90;;;;;;4966926;28;88482;-47
2022/05/11 08:58:33;;;;;;;;;;;16.90;52.10;;;;;;4967315;28;86860;-47
2022/05/11 09:00:59;;;;;;;;;;;16.90;52.00;;;;;;4966632;28;87730;-46
2022/05/11 09:03:31;;;;;;;;;;;17.00;52.10;;;;;;4966833;28;88660;-47
2022/05/11 09:05:57;;;;;;;;;;;16.90;52.10;;;;;;4970113;28;86874;-47
2022/05/11 09:08:23;;;;;;;;;;;16.90;52.10;;;;;;4966625;28;87507;-47
2022/05/11 09:10:49;;;;;;;;;;;17.00;52.00;;;;;;4967035;28;87309;-47
2022/05/11 09:13:15;;;;;;;;;;;17.00;52.10;;;;;;4967091;28;88000;-47
2022/05/11 09:15:55;;;;;;;;;;;17.00;51.90;;;;;;4966653;28;88439;-47
2022/05/11 09:18:29;;;;;;;;;;;17.00;52.00;;;;;;4967747;28;86149;-47
2022/05/11 09:20:55;;;;;;;;;;;17.00;52.10;;;;;;4965957;28;86754;-47
2022/05/11 09:23:30;;;;;;;;;;;17.00;52.10;;;;;;4966612;28;87594;-47
2022/05/11 09:26:00;;;;;;;;;;;17.00;52.00;;;;;;4966218;28;87871;-49
2022/05/11 09:28:27;;;;;;;;;;;17.10;52.00;;;;;;4969383;28;88175;-47
2022/05/11 09:31:03;;;;;;;;;;;17.10;52.00;;;;;;4966782;28;87092;-47
2022/05/11 09:33:31;;;;;;;;;;;17.10;52.00;;;;;;4966897;28;87892;-47
2022/05/11 09:35:57;;;;;;;;;;;17.10;52.00;;;;;;4966676;28;87494;-47
2022/05/11 09:38:34;;;;;;;;;;;17.20;52.10;;;;;;4966569;28;87027;-47
2022/05/11 09:40:59;;;;;;;;;;;17.20;52.10;;;;;;4966727;28;87796;-47
2022/05/11 09:43:33;;;;;;;;;;;17.10;52.10;;;;;;4966722;28;88096;-47
2022/05/11 09:45:59;;;;;;;;;;;17.20;52.10;;;;;;4966619;28;86933;-47
2022/05/11 09:48:33;;;;;;;;;;;17.20;52.10;;;;;;4969027;28;87663;-47
2022/05/11 09:51:17;;;;;;;;;;;17.20;52.10;;;;;;4965870;28;87785;-50
2022/05/11 09:53:55;;;;;;;;;;;17.20;52.60;;;;;;4966571;28;88953;-47
2022/05/11 09:56:27;;;;;;;;;;;17.20;52.00;;;;;;4966085;28;88517;-48
2022/05/11 09:58:52;;;;;;;;;;;17.30;52.10;;;;;;4966708;28;86931;-47
2022/05/11 10:01:26;;;;;;;;;;;17.30;52.10;;;;;;4966498;28;87084;-47
2022/05/11 10:03:55;;;;;;;;;;;17.30;51.90;;;;;;4966056;28;88412;-47
2022/05/11 10:06:21;;;;;;;;;;;17.30;52.10;;;;;;4966420;28;86821;-47
2022/05/11 10:08:48;;;;;;;;;;;17.40;52.00;;;;;;4966414;28;87846;-47
2022/05/11 10:11:22;;;;;;;;;;;17.40;52.10;;;;;;4968837;28;88681;-48
2022/05/11 10:13:57;;;;;;;;;;;17.40;52.20;;;;;;4966334;28;86910;-47
2022/05/11 10:22:24;;;;;;;;;;;17.50;52.20;;;;;;4966618;28;86813;-47
2022/05/11 10:25:03;;;;;;;;;;;17.50;52.10;;;;;;4965835;28;87575;-47
2022/05/11 10:27:29;;;;;;;;;;;17.50;52.20;;;;;;4966209;28;86860;-47
2022/05/11 10:29:54;;;;;;;;;;;17.50;52.30;;;;;;4966152;28;87751;-49
2022/05/11 10:32:39;;;;;;;;;;;17.50;52.30;;;;;;4966640;28;88370;-47
2022/05/11 10:35:34;;;;;;;;;;;17.50;52.30;;;;;;4972872;28;86121;-48
2022/05/11 10:38:18;;;;;;;;;;;17.50;52.20;;;;;;4951356;28;88461;-47
2022/05/11 10:40:44;;;;;;;;;;;17.60;52.10;;;;;;4969635;28;86879;-47
2022/05/11 10:43:19;;;;;;;;;;;17.60;52.00;;;;;;4968992;28;87876;-47
2022/05/11 10:45:44;;;;;;;;;;;17.70;52.00;;;;;;4969185;28;87554;-49
2022/05/11 10:48:29;;;;;;;;;;;17.70;52.00;;;;;;4969220;28;86848;-47
2022/05/11 10:50:59;;;;;;;;;;;17.70;51.90;;;;;;4969341;28;87981;-47
2022/05/11 10:53:25;;;;;;;;;;;17.70;51.80;;;;;;4968855;28;87635;-47
2022/05/11 10:55:58;;;;;;;;;;;17.70;51.80;;;;;;4969583;28;86826;-47
2022/05/11 10:58:38;;;;;;;;;;;17.80;52.00;;;;;;4971665;28;87714;-47
2022/05/11 11:01:08;;;;;;;;;;;17.80;51.70;;;;;;4969943;28;86057;-47
2022/05/11 11:03:34;;;;;;;;;;;17.80;51.70;;;;;;4969351;28;86805;-47
2022/05/11 11:08:59;;;;;;;;;;;17.90;51.90;;;;;;4967749;28;87956;-47
2022/05/11 11:11:28;;;;;;;;;;;17.90;51.70;;;;;;4968930;28;87740;-47
2022/05/11 11:14:00;;;;;;;;;;;17.90;51.90;;;;;;4968513;28;88573;-47
2022/05/11 11:16:31;;;;;;;;;;;18.00;51.90;;;;;;4968854;28;86954;-47
2022/05/11 11:18:57;;;;;;;;;;;18.00;51.80;;;;;;4968758;28;87859;-47
2022/05/11 11:21:23;;;;;;;;;;;18.00;51.70;;;;;;4970954;28;87629;-47
2022/05/11 11:24:17;;;;;;;;;;;18.00;51.60;;;;;;4968706;28;87397;-47
2022/05/11 11:26:52;;;;;;;;;;;18.10;51.50;;;;;;4965702;28;87966;-47
2022/05/11 11:29:19;;;;;;;;;;;18.10;51.70;;;;;;4968815;28;86832;-47
2022/05/11 11:31:56;;;;;;;;;;;18.10;51.60;;;;;;4968022;28;86937;-47
2022/05/11 11:34:25;;;;;;;;;;;18.20;51.50;;;;;;4967380;28;89367;-47
2022/05/11 11:36:52;;;;;;;;;;;18.20;51.70;;;;;;4968564;28;87072;-49
2022/05/11 11:39:36;;;;;;;;;;;18.20;51.60;;;;;;4968800;28;86822;-47
2022/05/11 11:42:04;;;;;;;;;;;18.30;51.60;;;;;;4968316;28;87468;-47
2022/05/11 11:44:36;;;;;;;;;;;18.30;51.70;;;;;;4970552;28;87102;-47
2022/05/11 11:47:24;;;;;;;;;;;18.20;51.90;;;;;;4967944;28;88506;-47
2022/05/11 11:49:49;;;;;;;;;;;18.20;51.90;;;;;;4968123;28;87255;-47
2022/05/11 11:52:34;;;;;;;;;;;18.20;52.00;;;;;;4968771;28;87895;-47
2022/05/11 11:55:00;;;;;;;;;;;18.30;52.00;;;;;;4968037;28;87530;-47
2022/05/11 11:57:25;;;;;;;;;;;18.30;52.10;;;;;;4968229;28;86847;-47
2022/05/11 11:59:57;;;;;;;;;;;18.30;52.00;;;;;;4967678;28;87764;-47
2022/05/11 12:02:36;;;;;;;;;;;18.30;51.90;;;;;;4967766;28;88625;-47
2022/05/11 12:05:21;;;;;;;;;;;18.30;52.00;;;;;;4971067;28;86852;-47
2022/05/11 12:16:24;;;;;;;;;;;18.40;51.90;;;;;;4963696;28;86839;-47
2022/05/11 12:18:50;;;;;;;;;;;18.50;52.00;;;;;;4968381;28;86118;-47
2022/05/11 12:21:22;;;;;;;;;;;18.50;52.00;;;;;;4967893;28;87290;-49
2022/05/11 12:23:48;;;;;;;;;;;18.50;52.00;;;;;;4967448;28;88953;-48
2022/05/11 12:26:20;;;;;;;;;;;18.50;52.00;;;;;;4967238;28;87788;-47
2022/05/11 12:28:46;;;;;;;;;;;18.50;51.90;;;;;;4970532;28;86822;-47
2022/05/11 12:31:31;;;;;;;;;;;18.50;52.00;;;;;;4967641;28;86901;-47
2022/05/11 12:33:57;;;;;;;;;;;18.50;51.90;;;;;;4967778;28;88167;-48
2022/05/11 12:36:37;;;;;;;;;;;18.60;52.00;;;;;;4967225;28;88430;-47
2022/05/11 12:39:03;;;;;;;;;;;18.60;52.00;;;;;;4967609;28;86916;-47
2022/05/11 12:41:29;;;;;;;;;;;18.60;51.90;;;;;;4967912;28;86836;-47
2022/05/11 12:43:57;;;;;;;;;;;18.60;51.80;;;;;;4967667;28;87826;-47
2022/05/11 12:46:23;;;;;;;;;;;18.60;51.90;;;;;;4967420;28;87069;-47
2022/05/11 12:48:56;;;;;;;;;;;18.60;51.80;;;;;;4967423;28;88238;-47
2022/05/11 12:51:29;;;;;;;;;;;18.60;51.80;;;;;;4969595;28;87819;-47
2022/05/11 12:53:56;;;;;;;;;;;18.60;51.80;;;;;;4967448;28;88349;-49
2022/05/11 12:56:27;;;;;;;;;;;18.60;51.80;;;;;;4966735;28;87852;-47
2022/05/11 12:58:55;;;;;;;;;;;18.60;51.80;;;;;;4967349;28;86897;-47
2022/05/11 13:01:22;;;;;;;;;;;18.70;51.80;;;;;;4967236;28;87828;-47
2022/05/11 13:03:53;;;;;;;;;;;18.70;51.90;;;;;;4966863;28;87708;-48
2022/05/11 13:06:18;;;;;;;;;;;18.70;51.80;;;;;;4967204;28;87128;-47
2022/05/11 13:08:46;;;;;;;;;;;18.70;51.70;;;;;;4967334;28;87987;-47
2022/05/11 13:11:14;;;;;;;;;;;18.80;51.70;;;;;;4966580;28;88561;-48
2022/05/11 13:13:40;;;;;;;;;;;18.80;51.70;;;;;;4969905;28;86861;-48
2022/05/11 13:16:07;;;;;;;;;;;18.80;51.70;;;;;;4966024;28;89546;-47
2022/05/11 13:18:34;;;;;;;;;;;18.80;51.60;;;;;;4967064;28;86834;-47
2022/05/11 13:21:01;;;;;;;;;;;18.90;51.70;;;;;;4966977;28;87691;-47
2022/05/11 13:23:33;;;;;;;;;;;18.90;51.60;;;;;;4966665;28;87716;-48
2022/05/11 13:26:00;;;;;;;;;;;18.90;51.60;;;;;;4966943;28;86905;-47
2022/05/11 13:28:28;;;;;;;;;;;18.90;51.40;;;;;;4966942;28;87210;-47
2022/05/11 13:30:56;;;;;;;;;;;19.00;51.40;;;;;;4966683;28;87348;-47
2022/05/11 13:33:33;;;;;;;;;;;19.00;51.40;;;;;;4967236;28;86240;-47
2022/05/11 13:36:08;;;;;;;;;;;19.10;51.40;;;;;;4969551;28;86991;-47
2022/05/11 13:38:33;;;;;;;;;;;19.10;51.30;;;;;;4966849;28;87222;-47
2022/05/11 13:41:04;;;;;;;;;;;19.10;51.30;;;;;;4966246;28;87856;-47
2022/05/11 13:43:32;;;;;;;;;;;19.10;51.20;;;;;;4965668;28;87706;-47
2022/05/11 13:46:00;;;;;;;;;;;19.20;51.40;;;;;;4966564;28;86954;-47
2022/05/11 13:48:28;;;;;;;;;;;19.20;51.30;;;;;;4966673;28;87277;-47
2022/05/11 13:51:05;;;;;;;;;;;19.20;51.30;;;;;;4966389;28;87471;-48
2022/05/11 13:53:33;;;;;;;;;;;19.30;51.30;;;;;;4966181;28;87109;-47
2022/05/11 13:56:18;;;;;;;;;;;19.30;51.30;;;;;;4966568;28;87014;-47
2022/05/11 13:59:07;;;;;;;;;;;19.30;51.10;;;;;;4969257;28;86628;-48
2022/05/11 14:01:39;;;;;;;;;;;19.40;51.20;;;;;;4955328;28;87095;-48
2022/05/11 14:04:05;;;;;;;;;;;19.40;51.00;;;;;;4965536;28;88574;-48
2022/05/11 14:06:49;;;;;;;;;;;19.40;51.00;;;;;;4965317;28;87833;-48
2022/05/11 14:09:15;;;;;;;;;;;19.40;51.00;;;;;;4969014;28;88987;-47
2022/05/11 14:11:40;;;;;;;;;;;19.40;50.80;;;;;;4968740;28;89217;-49
2022/05/11 14:14:06;;;;;;;;;;;19.50;51.10;;;;;;4969592;28;86854;-48
2022/05/11 14:16:32;;;;;;;;;;;19.40;50.80;;;;;;4969558;28;86996;-47
2022/05/11 14:18:58;;;;;;;;;;;19.50;50.80;;;;;;4971684;28;88455;-49
2022/05/11 14:21:24;;;;;;;;;;;19.50;50.90;;;;;;4969344;28;88267;-47
2022/05/11 14:23:50;;;;;;;;;;;19.50;50.60;;;;;;4969343;28;87140;-47
2022/05/11 14:26:15;;;;;;;;;;;19.50;50.70;;;;;;4969404;28;86907;-47
2022/05/11 14:28:42;;;;;;;;;;;19.60;50.70;;;;;;4969246;28;86850;-47
2022/05/11 14:31:12;;;;;;;;;;;19.60;50.60;;;;;;4967938;28;88580;-47
2022/05/11 14:33:37;;;;;;;;;;;19.60;50.60;;;;;;4968975;28;86912;-47
2022/05/11 14:36:04;;;;;;;;;;;19.60;50.40;;;;;;4969256;28;87099;-48
2022/05/11 14:38:30;;;;;;;;;;;19.60;50.70;;;;;;4968367;28;88602;-48
2022/05/11 14:40:55;;;;;;;;;;;19.70;50.80;;;;;;4971791;28;86875;-47
2022/05/11 14:43:23;;;;;;;;;;;19.70;50.70;;;;;;4968827;28;86997;-49
2022/05/11 14:45:51;;;;;;;;;;;19.70;50.50;;;;;;4968893;28;86846;-48
2022/05/11 14:48:20;;;;;;;;;;;19.70;50.50;;;;;;4969246;28;88013;-48
2022/05/11 14:50:46;;;;;;;;;;;19.70;50.30;;;;;;4968327;28;88447;-49
2022/05/11 14:53:12;;;;;;;;;;;19.80;50.30;;;;;;4969137;28;86857;-47
2022/05/11 14:55:37;;;;;;;;;;;19.80;50.20;;;;;;4967927;28;88079;-48
2022/05/11 15:03:33;;;;;;;;;;;19.80;50.10;;;;;;4971251;28;86832;-48
2022/05/11 15:05:59;;;;;;;;;;;19.90;50.00;;;;;;4968435;28;87043;-49
2022/05/11 15:08:25;;;;;;;;;;;19.90;50.20;;;;;;4968331;28;87126;-49
2022/05/11 15:13:36;;;;;;;;;;;20.00;50.10;;;;;;4969068;28;86153;-48